sensor_id;sensor_type;location;lat;lon;timestamp;pressure;altitude;pressure_sealevel;temperature;humidity
15558;BME280;7880;50.110;9.372;2023-04-19T00:01:47;8.374656274734297;;;8.375;100.0
15558;BME280;7880;50.110;9.372;2023-04-19T00:06:51;8.576343629794428;;;8.5;100.0
15558;BME280;7880;50.110;9.372;2023-04-19T00:11:46;8.460373343736865;;;8.375;100.0
15558;BME280;7880;50.110;9.372;2023-04-19T00:16:44;8.440204614051618;;;8.437;100.0
15558;BME280;7880;50.110;9.372;2023-04-19T00:21:49;8.556174873333656;;;8.437;100.0
15558;BME280;7880;50.110;9.372;2023-04-19T00:26:53;8.339361035474576;;;8.375;100.0
15558;BME280;7880;50.110;9.372;2023-04-19T00:31:56;8.455331160878995;;;8.375;100.0
15558;BME280;7880;50.110;9.372;2023-04-19T00:37:01;8.445246796036372;;;8.375;100.0
15558;BME280;7880;50.110;9.372;2023-04-19T00:42:05;8.495668631891022;;;8.437;100.0
15558;BME280;7880;50.110;9.372;2023-04-19T00:47:09;8.510795188322664;;;8.5;100.0
15558;BME280;7880;50.110;9.372;2023-04-19T00:52:15;8.571301440242678;;;8.5;100.0
15558;BME280;7880;50.110;9.372;2023-04-19T00:57:21;8.445246796036372;;;8.375;100.0
15558;BME280;7880;50.110;9.372;2023-04-19T01:02:21;8.445246796036372;;;8.375;100.0
15558;BME280;7880;50.110;9.372;2023-04-19T01:07:36;8.50575300255441;;;8.5;100.0
15558;BME280;7880;50.110;9.372;2023-04-19T01:12:37;8.485584262391786;;;8.437;100.0
15558;BME280;7880;50.110;9.372;2023-04-19T01:17:35;8.541048309043981;;;8.5;100.0
15558;BME280;7880;50.110;9.372;2023-04-19T01:22:42;8.556174873333656;;;8.5;100.0
15558;BME280;7880;50.110;9.372;2023-04-19T01:27:44;8.576343629794428;;;8.562;100.0
15558;BME280;7880;50.110;9.372;2023-04-19T01:32:56;8.556174873333656;;;8.562;100.0
15558;BME280;7880;50.110;9.372;2023-04-19T01:37:55;8.38474063142785;;;8.375;100.0
15558;BME280;7880;50.110;9.372;2023-04-19T01:42:57;8.430120250955223;;;8.437;100.0
15558;BME280;7880;50.110;9.372;2023-04-19T01:48:04;8.293981463095406;;;8.312;100.0
15558;BME280;7880;50.110;9.372;2023-04-19T01:53:21;8.394824989285553;;;8.375;100.0
15558;BME280;7880;50.110;9.372;2023-04-19T01:58:19;8.485584262391786;;;8.437;100.0
15558;BME280;7880;50.110;9.372;2023-04-19T02:03:31;8.510795188322664;;;8.5;100.0
15558;BME280;7880;50.110;9.372;2023-04-19T02:08:30;8.596512390911812;;;8.562;100.0
15558;BME280;7880;50.110;9.372;2023-04-19T02:13:37;8.541048309043981;;;8.562;100.0
15558;BME280;7880;50.110;9.372;2023-04-19T02:18:41;8.435162432357902;;;8.437;100.0
15558;BME280;7880;50.110;9.372;2023-04-19T02:23:46;8.430120250955223;;;8.375;100.0
15558;BME280;7880;50.110;9.372;2023-04-19T02:28:52;8.490626446995885;;;8.437;100.0
15558;BME280;7880;50.110;9.372;2023-04-19T02:33:55;8.520879560732283;;;8.5;100.0
15558;BME280;7880;50.110;9.372;2023-04-19T02:38:59;8.495668631891022;;;8.5;100.0
15558;BME280;7880;50.110;9.372;2023-04-19T02:44:05;8.520879560732283;;;8.5;100.0
15558;BME280;7880;50.110;9.372;2023-04-19T02:49:09;8.5360061215295;;;8.5;100.0
15558;BME280;7880;50.110;9.372;2023-04-19T02:54:13;8.571301440242678;;;8.562;100.0
15558;BME280;7880;50.110;9.372;2023-04-19T02:59:18;8.495668631891022;;;8.5;100.0
15558;BME280;7880;50.110;9.372;2023-04-19T03:04:28;8.485584262391786;;;8.5;100.0
15558;BME280;7880;50.110;9.372;2023-04-19T03:09:35;8.490626446995885;;;8.5;100.0
15558;BME280;7880;50.110;9.372;2023-04-19T03:14:35;8.455331160878995;;;8.437;100.0
15558;BME280;7880;50.110;9.372;2023-04-19T03:19:42;8.324234508728841;;;8.312;100.0
15558;BME280;7880;50.110;9.372;2023-04-19T03:24:44;8.293981463095406;;;8.25;100.0
15558;BME280;7880;50.110;9.372;2023-04-19T03:29:47;8.22339106402942;;;8.187;100.0
15558;BME280;7880;50.110;9.372;2023-04-19T03:34:52;8.440204614051618;;;8.312;100.0
15558;BME280;7880;50.110;9.372;2023-04-19T03:40:01;8.414993708493421;;;8.375;100.0
15558;BME280;7880;50.110;9.372;2023-04-19T03:45:00;8.293981463095406;;;8.25;100.0
15558;BME280;7880;50.110;9.372;2023-04-19T03:50:10;8.31415015902021;;;8.25;100.0
15558;BME280;7880;50.110;9.372;2023-04-19T03:55:11;8.243559743656078;;;8.187;100.0
15558;BME280;7880;50.110;9.372;2023-04-19T04:00:14;8.167927219066769;;;8.125;100.0
15558;BME280;7880;50.110;9.372;2023-04-19T04:05:18;8.12758989939466;;;8.125;100.0
15558;BME280;7880;50.110;9.372;2023-04-19T04:10:22;8.228433233499526;;;8.187;100.0
15558;BME280;7880;50.110;9.372;2023-04-19T04:15:37;8.35952974187676;;;8.25;100.0
15558;BME280;7880;50.110;9.372;2023-04-19T04:20:35;8.354487564839655;;;8.25;100.0
15558;BME280;7880;50.110;9.372;2023-04-19T04:25:37;8.253644085215637;;;8.25;100.0
15558;BME280;7880;50.110;9.372;2023-04-19T04:30:40;8.132632063335041;;;8.125;100.0
15558;BME280;7880;50.110;9.372;2023-04-19T04:35:43;8.21330672596232;;;8.125;100.0
15558;BME280;7880;50.110;9.372;2023-04-19T04:40:49;8.218348894850351;;;8.187;100.0
15558;BME280;7880;50.110;9.372;2023-04-19T04:45:55;8.253644085215637;;;8.125;100.0
15558;BME280;7880;50.110;9.372;2023-04-19T04:50:55;8.218348894850351;;;8.187;100.0
15558;BME280;7880;50.110;9.372;2023-04-19T04:56:01;8.208264557365329;;;8.187;100.0
15558;BME280;7880;50.110;9.372;2023-04-19T05:01:07;8.21330672596232;;;8.125;100.0
15558;BME280;7880;50.110;9.372;2023-04-19T05:06:20;8.112463409319753;;;8.062;100.0
15558;BME280;7880;50.110;9.372;2023-04-19T05:11:19;8.102379084058338;;;8.062;100.0
15558;BME280;7880;50.110;9.372;2023-04-19T05:15:56;8.193138053320581;;;8.125;100.0
15558;BME280;7880;50.110;9.372;2023-04-19T05:21:07;8.117505572387017;;;8.125;100.0
15558;BME280;7880;50.110;9.372;2023-04-19T05:26:03;8.112463409319753;;;8.062;100.0
15558;BME280;7880;50.110;9.372;2023-04-19T05:31:09;8.102379084058338;;;8.062;100.0
15558;BME280;7880;50.110;9.372;2023-04-19T05:36:15;8.102379084058338;;;8.062;100.0
15558;BME280;7880;50.110;9.372;2023-04-19T05:41:14;8.006578052137048;;;8.0;100.0
15558;BME280;7880;50.110;9.372;2023-04-19T05:46:18;8.117505572387017;;;8.062;100.0
15558;BME280;7880;50.110;9.372;2023-04-19T05:51:22;8.067083954811096;;;8.062;100.0
15558;BME280;7880;50.110;9.372;2023-04-19T05:56:31;8.21330672596232;;;8.125;100.0
15558;BME280;7880;50.110;9.372;2023-04-19T06:01:32;8.193138053320581;;;8.125;100.0
15558;BME280;7880;50.110;9.372;2023-04-19T06:06:37;8.193138053320581;;;8.187;100.0
15558;BME280;7880;50.110;9.372;2023-04-19T06:11:43;8.167927219066769;;;8.187;100.0
15558;BME280;7880;50.110;9.372;2023-04-19T06:16:55;8.167927219066769;;;8.187;100.0
15558;BME280;7880;50.110;9.372;2023-04-19T06:22:10;8.198180221044458;;;8.187;100.0
15558;BME280;7880;50.110;9.372;2023-04-19T06:27:01;8.208264557365329;;;8.187;100.0
15558;BME280;7880;50.110;9.372;2023-04-19T06:32:08;8.112463409319753;;;8.125;100.0
15558;BME280;7880;50.110;9.372;2023-04-19T06:37:12;8.253644085215637;;;8.25;100.0
15558;BME280;7880;50.110;9.372;2023-04-19T06:42:15;8.40490934830741;;;8.312;100.0
15558;BME280;7880;50.110;9.372;2023-04-19T06:47:32;8.283897116879235;;;8.312;100.0
15558;BME280;7880;50.110;9.372;2023-04-19T06:52:23;8.22339106402942;;;8.187;100.0
15558;BME280;7880;50.110;9.372;2023-04-19T06:57:30;8.273812771827215;;;8.187;100.0
15558;BME280;7880;50.110;9.372;2023-04-19T07:02:33;8.30406581047573;;;8.312;100.0
15558;BME280;7880;50.110;9.372;2023-04-19T07:07:40;8.334318859601627;;;8.312;100.0
15558;BME280;7880;50.110;9.372;2023-04-19T07:12:42;8.409951528254897;;;8.312;100.0
15558;BME280;7880;50.110;9.372;2023-04-19T07:17:48;8.541048309043981;;;8.437;100.0
15558;BME280;7880;50.110;9.372;2023-04-19T07:22:49;8.178011551895178;;;8.25;100.0
15558;BME280;7880;50.110;9.372;2023-04-19T07:27:54;8.344403211638564;;;8.25;100.0
15558;BME280;7880;50.110;9.372;2023-04-19T07:33:03;8.485584262391786;;;8.375;100.0
15558;BME280;7880;50.110;9.372;2023-04-19T07:38:02;8.576343629794428;;;8.5;100.0
15558;BME280;7880;50.110;9.372;2023-04-19T07:43:06;8.651976507995277;;;8.625;100.0
15558;BME280;7880;50.110;9.372;2023-04-19T07:48:11;8.747778247721726;;;8.687;100.0
15558;BME280;7880;50.110;9.372;2023-04-19T07:53:15;8.838537887536223;;;8.812;100.0
15558;BME280;7880;50.110;9.372;2023-04-19T07:58:18;8.96963531151996;;;8.937;100.0
15558;BME280;7880;50.110;9.372;2023-04-19T08:03:22;8.999888591148192;;;9.0;100.0
15558;BME280;7880;50.110;9.372;2023-04-19T08:08:27;9.383097706647822;;;9.312;100.0
15558;BME280;7880;50.110;9.372;2023-04-19T08:13:34;9.594871886406327;;;9.625;100.0
15558;BME280;7880;50.110;9.372;2023-04-19T08:18:41;9.796562058717246;;;9.75;100.0
15558;BME280;7880;50.110;9.372;2023-04-19T08:23:41;9.937745456403354;;;9.937;100.0
15558;BME280;7880;50.110;9.372;2023-04-19T08:28:51;10.04867542894208;;;10.062;100.0
15558;BME280;7880;50.110;9.372;2023-04-19T08:33:50;9.937745456403354;;;10.062;100.0
15558;BME280;7880;50.110;9.372;2023-04-19T08:38:56;10.07388680598233;;;10.187;100.0
15558;BME280;7880;50.110;9.372;2023-04-19T08:43:58;10.023464059177787;;;10.062;100.0
15558;BME280;7880;50.110;9.372;2023-04-19T08:49:03;9.932703188271262;;;10.0;100.0
15558;BME280;7880;50.110;9.372;2023-04-19T08:54:14;10.210028367728228;;;10.25;100.0
15558;BME280;7880;50.110;9.372;2023-04-19T08:59:10;10.502481328888098;;;10.5;100.0
15558;BME280;7880;50.110;9.372;2023-04-19T09:04:14;10.003294968605042;;;10.062;100.0
15558;BME280;7880;50.110;9.372;2023-04-19T09:09:25;10.275578084238806;;;10.25;100.0
15558;BME280;7880;50.110;9.372;2023-04-19T09:14:25;10.38146619173349;;;10.25;100.0
15558;BME280;7880;50.110;9.372;2023-04-19T09:19:44;10.401635369617726;;;10.437;100.0
15558;BME280;7880;50.110;9.372;2023-04-19T09:24:39;10.55290435217903;;;10.625;100.0
15558;BME280;7880;50.110;9.372;2023-04-19T09:29:40;10.638623558566906;;;10.625;100.0
15558;BME280;7880;50.110;9.372;2023-04-19T09:34:50;10.593242791766533;;;10.5;100.0
15558;BME280;7880;50.110;9.372;2023-04-19T09:39:47;10.467185229901224;;;10.375;100.0
15558;BME280;7880;50.110;9.372;2023-04-19T09:44:55;10.638623558566906;;;10.562;100.0
15558;BME280;7880;50.110;9.372;2023-04-19T09:50:11;10.835273820447037;;;10.75;100.0
15558;BME280;7880;50.110;9.372;2023-04-19T09:55:01;11.087390188366408;;;11.062;100.0
15558;BME280;7880;50.110;9.372;2023-04-19T10:00:09;11.20840630340972;;;11.25;100.0
15558;BME280;7880;50.110;9.372;2023-04-19T10:05:10;11.117644201411167;;;11.062;100.0
15558;BME280;7880;50.110;9.372;2023-04-19T10:10:21;11.319337889464805;;;11.25;100.0
15558;BME280;7880;50.110;9.372;2023-04-19T10:15:21;10.956289586244385;;;11.0;100.0
15558;BME280;7880;50.110;9.372;2023-04-19T10:20:09;11.571455654368037;;;11.437;100.0
15558;BME280;7880;50.110;9.372;2023-04-19T10:25:27;11.299168499704683;;;11.375;96.89257054983754
15558;BME280;7880;50.110;9.372;2023-04-19T10:30:17;11.147898224933305;;;11.25;96.28021883046155
15558;BME280;7880;50.110;9.372;2023-04-19T10:35:19;11.218490987230325;;;11.187;93.844427416011
15558;BME280;7880;50.110;9.372;2023-04-19T10:40:54;11.52103204317973;;;11.5;93.19225950376726
15558;BME280;7880;50.110;9.372;2023-04-19T10:45:34;11.621879294660175;;;11.687;92.94315035351991
15558;BME280;7880;50.110;9.372;2023-04-19T10:51:12;11.531116763089084;;;11.625;88.5027011381232
15558;BME280;7880;50.110;9.372;2023-04-19T10:55:53;11.843743657699088;;;11.875;86.33241437173646
15558;BME280;7880;50.110;9.372;2023-04-19T11:01:30;11.36471903345082;;;11.437;84.50710075562809
15558;BME280;7880;50.110;9.372;2023-04-19T11:06:15;11.420184908114607;;;11.312;84.35555425547055
15558;BME280;7880;50.110;9.372;2023-04-19T11:11:25;11.747938522719778;;;11.75;81.3394881658676
15558;BME280;7880;50.110;9.372;2023-04-19T11:16:22;11.556328567955642;;;11.562;80.34077535033252
15558;BME280;7880;50.110;9.372;2023-04-19T11:21:27;11.470608461095253;;;11.437;78.84764081750092
15558;BME280;7880;50.110;9.372;2023-04-19T11:26:30;11.596667470876127;;;11.437;78.85993706183618
15558;BME280;7880;50.110;9.372;2023-04-19T11:31:34;11.480693175183841;;;11.562;74.37529374560938
15558;BME280;7880;50.110;9.372;2023-04-19T11:36:47;11.571455654368037;;;11.5;74.42540991301027
15558;BME280;7880;50.110;9.372;2023-04-19T11:41:43;11.692472439963604;;;11.625;75.52772340387203
15558;BME280;7880;50.110;9.372;2023-04-19T11:47:03;11.727769034006633;;;11.812;72.05903244727662
15558;BME280;7880;50.110;9.372;2023-04-19T11:51:55;11.60170983505086;;;11.687;68.91233659361534
15558;BME280;7880;50.110;9.372;2023-04-19T11:56:59;11.631964026211062;;;11.687;68.31229478968557
15558;BME280;7880;50.110;9.372;2023-04-19T12:02:08;11.727769034006633;;;11.875;62.70195702429065
15558;BME280;7880;50.110;9.372;2023-04-19T12:07:09;11.76306564231054;;;11.875;62.91056455820351
15558;BME280;7880;50.110;9.372;2023-04-19T12:12:11;11.541201484162594;;;11.625;60.075595920006485
15558;BME280;7880;50.110;9.372;2023-04-19T12:17:15;11.662218227848644;;;11.687;57.4272870685437
15558;BME280;7880;50.110;9.372;2023-04-19T12:22:23;11.571455654368037;;;11.687;56.06575404923628
15558;BME280;7880;50.110;9.372;2023-04-19T12:27:25;11.490777890436584;;;11.562;57.784592023534955
15558;BME280;7880;50.110;9.372;2023-04-19T12:32:29;11.61683692932129;;;11.625;56.44430039305458
15558;BME280;7880;50.110;9.372;2023-04-19T12:37:37;11.531116763089084;;;11.562;54.865489374390386
15558;BME280;7880;50.110;9.372;2023-04-19T12:42:39;11.571455654368037;;;11.687;51.502663279302226
15558;BME280;7880;50.110;9.372;2023-04-19T12:47:44;11.460523748170818;;;11.625;49.4014189986946
15558;BME280;7880;50.110;9.372;2023-04-19T12:52:47;11.642048758926103;;;11.687;51.706917931470535
15558;BME280;7880;50.110;9.372;2023-04-19T12:57:52;11.969803205900826;;;12.0;52.728015902497674
15558;BME280;7880;50.110;9.372;2023-04-19T13:02:56;11.445396680966951;;;11.625;48.056953684290555
15558;BME280;7880;50.110;9.372;2023-04-19T13:08:09;11.783235139172756;;;11.875;49.900118503949756
15558;BME280;7880;50.110;9.372;2023-04-19T13:13:08;11.702557179663563;;;11.75;50.652050210358915
15558;BME280;7880;50.110;9.372;2023-04-19T13:18:12;11.979887977614998;;;12.062;51.02794467385884
15558;BME280;7880;50.110;9.372;2023-04-19T13:23:16;11.61683692932129;;;11.687;50.30927874227522
15558;BME280;7880;50.110;9.372;2023-04-19T13:28:20;11.858870793879031;;;11.875;50.667824616800466
15558;BME280;7880;50.110;9.372;2023-04-19T13:33:25;12.070650975429453;;;12.062;51.61043270614166
15558;BME280;7880;50.110;9.372;2023-04-19T13:38:37;11.80844701679889;;;11.937;51.239996173509496
15558;BME280;7880;50.110;9.372;2023-04-19T13:43:36;11.924421747593442;;;11.937;50.99950279833222
15558;BME280;7880;50.110;9.372;2023-04-19T13:48:45;11.566413291939535;;;11.687;48.033656475449376
15558;BME280;7880;50.110;9.372;2023-04-19T13:53:44;11.682387701427796;;;11.75;50.00323720166372
15558;BME280;7880;50.110;9.372;2023-04-19T13:58:53;11.586582743399777;;;11.625;49.64960857619017
15558;BME280;7880;50.110;9.372;2023-04-19T14:03:52;11.995015137369046;;;12.0;52.61208077415198
15558;BME280;7880;50.110;9.372;2023-04-19T14:08:56;11.621879294660175;;;11.687;52.62467347924619
15558;BME280;7880;50.110;9.372;2023-04-19T14:14:00;11.662218227848644;;;11.687;50.90568421378345
15558;BME280;7880;50.110;9.372;2023-04-19T14:19:04;11.485735532664695;;;11.5;53.94597648724823
15558;BME280;7880;50.110;9.372;2023-04-19T14:24:15;11.445396680966951;;;11.375;54.241355964601496
15558;BME280;7880;50.110;9.372;2023-04-19T14:29:18;11.833658901700982;;;11.812;53.997245437311044
15558;BME280;7880;50.110;9.372;2023-04-19T14:34:22;11.319337889464805;;;11.437;50.90477263072638
15558;BME280;7880;50.110;9.372;2023-04-19T14:39:26;11.163025240623393;;;11.187;52.53848216492561
15558;BME280;7880;50.110;9.372;2023-04-19T14:45:19;11.490777890436584;;;11.5;54.572075619603716
15558;BME280;7880;50.110;9.372;2023-04-19T14:50:18;11.25378738977015;;;11.25;55.622096872825765
15558;BME280;7880;50.110;9.372;2023-04-19T14:55:24;11.349591982836136;;;11.312;55.488554208283254
15558;BME280;7880;50.110;9.372;2023-04-19T15:00:32;11.389930790296058;;;11.437;56.48678399430239
15558;BME280;7880;50.110;9.372;2023-04-19T15:05:33;10.905866330122809;;;10.937;56.83476524100141
15558;BME280;7880;50.110;9.372;2023-04-19T15:10:36;10.976458896842086;;;10.875;56.811649904918546
15558;BME280;7880;50.110;9.372;2023-04-19T15:15:39;11.178152258932823;;;11.062;57.40905416013708
15558;BME280;7880;50.110;9.372;2023-04-19T15:20:43;11.712641920527677;;;11.625;57.344900775561335
15558;BME280;7880;50.110;9.372;2023-04-19T15:24:14;11.440354325814406;;;11.5;57.25225297839508
15558;BME280;7880;50.110;9.372;2023-04-19T15:29:23;11.183194598951378;;;11.125;60.521615335719254
15558;BME280;7880;50.110;9.372;2023-04-19T15:34:24;10.956289586244385;;;11.0;59.86375266368403
15558;BME280;7880;50.110;9.372;2023-04-19T15:39:26;10.825189180864253;;;10.75;59.79316249943869
15558;BME280;7880;50.110;9.372;2023-04-19T15:44:36;11.036966856574873;;;10.937;59.22272086183803
15558;BME280;7880;50.110;9.372;2023-04-19T15:49:35;11.223533329577185;;;11.187;58.0890821152654
15558;BME280;7880;50.110;9.372;2023-04-19T15:54:38;11.60170983505086;;;11.5;61.15919870654475
15558;BME280;7880;50.110;9.372;2023-04-19T16:00:17;10.931077954545618;;;11.0;58.164322488838295
15558;BME280;7880;50.110;9.372;2023-04-19T16:05:04;10.497439028159715;;;10.562;58.63920269213695
15558;BME280;7880;50.110;9.372;2023-04-19T16:10:07;10.49239672772237;;;10.375;59.7063671579303
15558;BME280;7880;50.110;9.372;2023-04-19T16:15:17;10.300789526762674;;;10.25;60.54082514776795
15558;BME280;7880;50.110;9.372;2023-04-19T16:20:15;10.215070651867427;;;10.187;59.18964040211375
15558;BME280;7880;50.110;9.372;2023-04-19T16:25:25;10.34617014164105;;;10.25;57.77534073961587
15558;BME280;7880;50.110;9.372;2023-04-19T16:30:26;10.477269828156569;;;10.437;55.90473796404123
15558;BME280;7880;50.110;9.372;2023-04-19T16:35:30;10.64366586744436;;;10.562;57.28247311164344
15558;BME280;7880;50.110;9.372;2023-04-19T16:40:36;10.507523629907519;;;10.5;55.19723917576104
15558;BME280;7880;50.110;9.372;2023-04-19T16:45:38;10.366339311376214;;;10.375;53.02185611255293
15558;BME280;7880;50.110;9.372;2023-04-19T16:50:43;10.078929082263494;;;10.062;54.14225226650007
15558;BME280;7880;50.110;9.372;2023-04-19T16:55:51;10.013379513309337;;;9.937;55.603502752260006
15558;BME280;7880;50.110;9.372;2023-04-19T17:00:50;9.912534118653275;;;9.812;56.21169672448121
15558;BME280;7880;50.110;9.372;2023-04-19T17:06:04;9.82177336299792;;;9.812;55.88532794556072
15558;BME280;7880;50.110;9.372;2023-04-19T17:11:10;9.736054958129534;;;9.687;56.768348689772836
15558;BME280;7880;50.110;9.372;2023-04-19T17:16:14;9.76126624494791;;;9.625;60.28361373857985
15558;BME280;7880;50.110;9.372;2023-04-19T17:21:18;9.756223987002159;;;9.625;58.943582336252575
15558;BME280;7880;50.110;9.372;2023-04-19T17:26:26;9.852026937738993;;;9.75;58.31009849536065
15558;BME280;7880;50.110;9.372;2023-04-19T17:31:26;9.791519798734225;;;9.687;56.454224437888435
15558;BME280;7880;50.110;9.372;2023-04-19T17:36:31;9.725970445439453;;;9.687;54.86700780172814
15558;BME280;7880;50.110;9.372;2023-04-19T17:41:38;9.887322788179153;;;9.75;55.69817602610434
15558;BME280;7880;50.110;9.372;2023-04-19T17:46:43;9.82681562472717;;;9.75;55.11968601702183
15558;BME280;7880;50.110;9.372;2023-04-19T17:51:49;9.907491851976374;;;9.812;60.91951525641843
15558;BME280;7880;50.110;9.372;2023-04-19T17:56:52;9.695716914354126;;;9.625;57.721653025234374
15558;BME280;7880;50.110;9.372;2023-04-19T18:01:56;9.514195947867119;;;9.437;57.68089292640245
15558;BME280;7880;50.110;9.372;2023-04-19T18:07:00;9.473858006537194;;;9.312;64.50202018817112
15558;BME280;7880;50.110;9.372;2023-04-19T18:12:05;9.100732932245592;;;9.062;62.441565446192676
15558;BME280;7880;50.110;9.372;2023-04-19T18:17:11;9.186450713709927;;;9.062;69.07720348805219
15558;BME280;7880;50.110;9.372;2023-04-19T18:22:23;9.009973020019242;;;8.875;62.08874805234766
15558;BME280;7880;50.110;9.372;2023-04-19T18:27:22;8.722567253396846;;;8.75;69.7709432433736
15558;BME280;7880;50.110;9.372;2023-04-19T18:32:28;8.712482857704163;;;8.562;64.9876486980024
15558;BME280;7880;50.110;9.372;2023-04-19T18:37:30;8.793158055841923;;;8.625;69.0890535194782
15558;BME280;7880;50.110;9.372;2023-04-19T18:42:35;8.596512390911812;;;8.5;66.96452369315122
15558;BME280;7880;50.110;9.372;2023-04-19T18:47:39;8.268770599737763;;;8.25;71.37000845740587
15558;BME280;7880;50.110;9.372;2023-04-19T18:52:43;8.3645719192049;;;8.187;76.42995248169295
15558;BME280;7880;50.110;9.372;2023-04-19T18:57:49;8.172969385335454;;;8.0;78.18935392874856
15558;BME280;7880;50.110;9.372;2023-04-19T19:02:51;8.12254773574532;;;7.937;81.26612192802759
15558;BME280;7880;50.110;9.372;2023-04-19T19:08:55;8.082210437027971;;;7.937;80.74502565260559
15558;BME280;7880;50.110;9.372;2023-04-19T19:13:56;7.880524222837994;;;7.562;83.2072406381218
15558;BME280;7880;50.110;9.372;2023-04-19T19:18:57;7.643543516192585;;;7.562;81.95617014716909
15558;BME280;7880;50.110;9.372;2023-04-19T19:24:04;7.759512717841426;;;7.437;84.93998794290734
15558;BME280;7880;50.110;9.372;2023-04-19T19:29:10;7.638501380482921;;;7.437;79.30592960252125
15558;BME280;7880;50.110;9.372;2023-04-19T19:34:11;7.835144888819196;;;7.625;79.81645323838897
15558;BME280;7880;50.110;9.372;2023-04-19T19:39:15;7.512448082328774;;;7.375;86.09379947432112
15558;BME280;7880;50.110;9.372;2023-04-19T19:44:19;7.643543516192585;;;7.437;88.27987288742084
15558;BME280;7880;50.110;9.372;2023-04-19T19:49:23;7.366226484352955;;;7.187;86.21725193669573
15558;BME280;7880;50.110;9.372;2023-04-19T19:54:37;7.502363826334476;;;7.25;90.70691089252232
15558;BME280;7880;50.110;9.372;2023-04-19T19:59:39;7.2855526040366385;;;7.0;93.91480762551443
15558;BME280;7880;50.110;9.372;2023-04-19T20:04:37;7.093952436890686;;;6.875;98.06834360112228
15558;BME280;7880;50.110;9.372;2023-04-19T20:09:41;6.594785554055124;;;6.25;100.0
15558;BME280;7880;50.110;9.372;2023-04-19T20:14:45;6.514112386200577;;;6.062;100.0
15558;BME280;7880;50.110;9.372;2023-04-19T20:19:49;6.4838599674636495;;;6.125;100.0
15558;BME280;7880;50.110;9.372;2023-04-19T20:24:53;6.619995934289181;;;6.187;100.0
15558;BME280;7880;50.110;9.372;2023-04-19T20:28:28;6.25192510522902;;;6.0;100.0
15558;BME280;7880;50.110;9.372;2023-04-19T20:33:31;6.140999954030849;;;5.75;100.0
15558;BME280;7880;50.110;9.372;2023-04-19T20:38:35;6.216630723659182;;;5.75;100.0
15558;BME280;7880;50.110;9.372;2023-04-19T20:43:45;6.0552851609478235;;;5.812;100.0
15558;BME280;7880;50.110;9.372;2023-04-19T20:48:47;6.025032901117811;;;5.562;100.0
15558;BME280;7880;50.110;9.372;2023-04-19T20:53:51;5.863687692309031;;;5.375;100.0
15558;BME280;7880;50.110;9.372;2023-04-19T20:58:57;5.7779731713468205;;;5.25;100.0
15558;BME280;7880;50.110;9.372;2023-04-19T21:03:59;5.510746087046573;;;5.0;100.0
15558;BME280;7880;50.110;9.372;2023-04-19T21:09:04;5.2435198202729225;;;4.812;100.0
15558;BME280;7880;50.110;9.372;2023-04-19T21:14:08;5.006546267640078;;;4.625;100.0
15558;BME280;7880;50.110;9.372;2023-04-19T21:19:13;5.218309837306151;;;4.812;100.0
15558;BME280;7880;50.110;9.372;2023-04-19T21:24:15;4.885538744047517;;;4.5;100.0
15558;BME280;7880;50.110;9.372;2023-04-19T21:29:20;4.668734016851522;;;4.187;100.0
15558;BME280;7880;50.110;9.372;2023-04-19T21:34:23;4.648566162609495;;;4.0;100.0
15558;BME280;7880;50.110;9.372;2023-04-19T21:39:31;4.552768918551737;;;3.937;100.0
15558;BME280;7880;50.110;9.372;2023-04-19T21:44:33;4.10907778996625;;;3.75;100.0
15558;BME280;7880;50.110;9.372;2023-04-19T21:49:36;3.862023479328491;;;3.625;100.0
15558;BME280;7880;50.110;9.372;2023-04-19T21:54:40;4.194790673255921;;;3.75;100.0
15558;BME280;7880;50.110;9.372;2023-04-19T21:59:44;4.285545582533814;;;3.812;100.0
15558;BME280;7880;50.110;9.372;2023-04-19T22:04:49;4.265377816767431;;;3.812;100.0
15558;BME280;7880;50.110;9.372;2023-04-19T22:09:53;3.826730063423747;;;3.687;100.0
15558;BME280;7880;50.110;9.372;2023-04-19T22:14:58;4.214958422724157;;;3.75;100.0
15558;BME280;7880;50.110;9.372;2023-04-19T22:20:08;3.418335859500803;;;3.375;100.0
15558;BME280;7880;50.110;9.372;2023-04-19T22:25:07;3.665388915181393;;;3.375;100.0
15558;BME280;7880;50.110;9.372;2023-04-19T22:30:11;3.1712835026031825;;;2.937;100.0
15558;BME280;7880;50.110;9.372;2023-04-19T22:35:18;3.514131859369809;;;2.937;100.0
15558;BME280;7880;50.110;9.372;2023-04-19T22:40:20;3.7511013630777597;;;3.062;100.0
15558;BME280;7880;50.110;9.372;2023-04-19T22:45:23;3.7914366617798807;;;3.312;100.0